Latest Weather Observations for Fowlers Gap

IDN60801

Issued at 11:32 am EDT Sunday 29 March 2015 (issued every 30 minutes, with the page automatically refreshed every 10 minutes)

About weather observations | Map of weather stations | Latest weather observations for NSW | Other Formats
Station Details ID: 046128 Name: FOWLERS GAP AWS Lat: -31.09 Lon: 141.70 Height: 181.0 m
Data from the previous 72 hours. | See also: Recent months at Fowlers Gap
Date/Time
EDT
Temp
°C
App
Temp
°C
Dew
Point
Rel
Hum
%
Delta-T
°C
Wind Press
QNH
hPa
Press
MSL
hPa
Rain
since 9 am
mm
Dir
 
Spd
km/h
Gust
km/h
Spd
kts
Gust
kts
29/11:30am 21.8 19.6 5.3 34 8.2 E 6 9 3 5 1024.5 1023.7 0.0
29/11:00am 20.9 18.5 4.5 34 8.0 SE 6 9 3 5 1024.4 1023.6 0.0
29/10:30am 20.2 17.8 4.3 35 7.7 SSE 6 7 3 4 1024.6 1023.8 0.0
29/10:00am 19.7 17.3 4.2 36 7.5 SSE 6 6 3 3 1024.3 1023.5 0.0
29/09:30am 18.5 17.3 4.7 40 6.6 CALM 0 0 0 0 1023.7 1022.9 0.0
29/09:00am 16.6 15.3 4.3 44 5.8 CALM 0 0 0 0 1023.2 1022.4 0.0
29/08:30am 14.9 13.5 3.7 47 5.2 CALM 0 0 0 0 1022.6 1021.8 0.0
29/08:00am 14.0 12.5 3.2 48 4.9 CALM 0 0 0 0 1022.3 1021.5 0.0
29/07:30am 13.7 12.2 2.9 48 4.8 CALM 0 0 0 0 1022.0 1021.2 0.0
29/07:00am 13.4 11.9 2.9 49 4.7 CALM 0 6 0 3 1021.5 1020.7 0.0
29/06:30am 13.5 10.8 2.7 48 4.8 SW 6 7 3 4 1021.4 1020.5 0.0
29/06:00am 13.9 11.1 3.4 49 4.8 SSW 7 9 4 5 1021.0 1020.1 0.0
29/05:30am 14.3 12.8 3.2 47 5.0 CALM 0 6 0 3 1020.9 1020.0 0.0
29/05:00am 14.8 12.1 3.6 47 5.1 SW 7 9 4 5 1021.1 1020.2 0.0
29/04:30am 14.4 12.6 3.2 47 5.1 SSW 2 7 1 4 1021.0 1020.1 0.0
29/04:00am 15.5 12.7 3.3 44 5.6 SSW 7 9 4 5 1021.1 1020.2 0.0
29/03:30am 16.1 13.6 3.5 43 5.8 SSW 6 7 3 4 1021.2 1020.3 0.0
29/03:00am 16.3 13.6 3.7 43 5.9 SW 7 9 4 5 1021.4 1020.5 0.0
29/02:30am 16.4 13.9 3.8 43 5.9 SW 6 7 3 4 1021.6 1020.8 0.0
29/02:00am 16.9 14.4 3.6 41 6.2 S 6 7 3 4 1021.5 1020.7 0.0
29/01:30am 18.6 14.8 4.0 38 7.0 SSE 13 15 7 8 1021.6 1020.8 0.0
29/01:00am 19.2 15.4 3.8 36 7.3 SE 13 17 7 9 1021.8 1021.0 0.0
29/12:30am 19.8 15.7 4.3 36 7.5 SE 15 22 8 12 1021.6 1020.8 0.0
29/12:00am 18.1 15.2 2.8 36 7.1 SSW 7 9 4 5 1021.9 1021.1 0.0
 
Date/Time
EDT
Temp
°C
App
Temp
°C
Dew
Point
Rel
Hum
%
Delta-T
°C
Wind Press
QNH
hPa
Press
MSL
hPa
Rain
since 9 am
mm
Dir
 
Spd
km/h
Gust
km/h
Spd
kts
Gust
kts
28/11:30pm 18.1 15.4 2.4 35 7.2 SSW 6 7 3 4 1021.8 1021.0 0.0
28/11:00pm 18.2 15.2 2.1 34 7.3 SSW 7 9 4 5 1021.9 1021.1 0.0
28/10:30pm 18.6 15.6 2.0 33 7.6 S 7 9 4 5 1022.0 1021.2 0.0
28/10:00pm 19.2 16.2 1.7 31 8.0 S 7 9 4 5 1022.0 1021.2 0.0
28/09:30pm 20.4 17.4 2.3 30 8.5 SSE 7 11 4 6 1021.7 1020.9 0.0
28/09:00pm 21.7 18.0 2.4 28 9.1 SSE 11 13 6 7 1021.5 1020.7 0.0
28/08:30pm 22.5 18.8 2.6 27 9.5 SSE 11 13 6 7 1021.2 1020.3 0.0
28/08:00pm 23.4 20.1 2.3 25 10.1 SE 9 13 5 7 1021.0 1020.1 0.0
28/07:30pm 24.4 20.7 2.5 24 10.6 SE 11 15 6 8 1020.6 1019.8 0.0
28/07:00pm 25.3 22.5 2.1 22 11.2 SSE 6 9 3 5 1020.5 1019.7 0.0
28/06:30pm 25.6 22.2 1.7 21 11.5 E 9 17 5 9 1020.2 1019.4 0.0
28/06:00pm 25.7 21.9 1.8 21 11.5 E 11 17 6 9 1020.1 1019.3 0.0
28/05:30pm 25.8 22.3 1.2 20 11.7 ENE 9 17 5 9 1020.5 1019.7 0.0
28/05:00pm 25.9 22.5 1.9 21 11.6 ESE 9 15 5 8 1020.6 1019.8 0.0
28/04:30pm 25.4 21.7 2.2 22 11.2 ENE 11 19 6 10 1020.9 1020.0 0.0
28/04:00pm 25.5 21.8 2.2 22 11.3 SE 11 15 6 8 1021.3 1020.4 0.0
28/03:30pm 25.1 21.1 3.1 24 10.8 SE 13 22 7 12 1021.5 1020.7 0.0
28/03:00pm 24.9 21.2 2.4 23 10.9 NE 11 20 6 11 1022.0 1021.2 0.0
28/02:30pm 23.8 19.9 3.2 26 10.1 NE 13 19 7 10 1022.6 1021.8 0.0
28/02:00pm 23.9 20.8 3.8 27 9.9 ENE 9 15 5 8 1023.0 1022.2 0.0
28/01:30pm 22.9 19.6 4.4 30 9.2 E 11 19 6 10 1023.5 1022.7 0.0
28/01:00pm 22.1 18.8 4.6 32 8.6 ENE 11 20 6 11 1024.0 1023.2 0.0
28/12:30pm 21.4 17.4 4.9 34 8.2 E 15 24 8 13 1024.7 1023.9 0.0
28/12:00pm 20.7 16.7 4.7 35 7.8 ESE 15 22 8 12 1025.1 1024.3 0.0
28/11:30am 20.4 16.5 5.2 37 7.5 E 15 22 8 12 1025.2 1024.4 0.0
28/11:00am 19.5 15.2 5.2 39 7.0 E 17 20 9 11 1025.4 1024.6 0.0
28/10:30am 18.4 13.7 5.3 42 6.4 ESE 19 28 10 15 1025.4 1024.6 0.0
28/10:00am 17.3 12.1 5.3 45 5.8 ESE 22 28 12 15 1025.4 1024.6 0.0
28/09:30am 16.1 11.4 5.1 48 5.3 SE 19 28 10 15 1025.7 1024.9 0.0
28/09:00am 15.3 11.0 5.2 51 4.8 SE 17 24 9 13 1025.2 1024.4 0.0
28/08:30am 12.4 10.1 4.6 59 3.6 SW 6 11 3 6 1025.1 1024.3 0.0
28/08:00am 10.8 9.4 3.8 62 3.1 CALM 0 2 0 1 1024.8 1024.0 0.0
28/07:30am 10.9 8.4 3.7 61 3.2 W 6 11 3 6 1024.3 1023.5 0.0
28/07:00am 11.1 9.4 4.1 62 3.1 SE 2 7 1 4 1024.3 1023.5 0.0
28/06:30am 11.9 8.9 4.2 59 3.5 SSE 9 13 5 7 1024.3 1023.5 0.0
28/06:00am 12.1 8.7 3.9 57 3.7 SSE 11 13 6 7 1024.0 1023.2 0.0
28/05:30am 12.4 9.0 3.9 56 3.9 SSE 11 15 6 8 1024.0 1023.2 0.0
28/05:00am 12.7 8.9 3.9 55 4.0 SSE 13 17 7 9 1023.9 1023.1 0.0
28/04:30am 13.1 9.3 3.7 53 4.3 SSE 13 19 7 10 1023.8 1023.0 0.0
28/04:00am 13.5 9.7 4.1 53 4.3 SSE 13 19 7 10 1023.6 1022.8 0.0
28/03:30am 12.6 9.2 3.8 55 4.0 S 11 15 6 8 1023.9 1023.1 0.0
28/03:00am 11.9 8.6 2.6 53 4.1 SSW 9 9 5 5 1024.0 1023.2 0.0
28/02:30am 12.8 9.6 3.2 52 4.3 SSE 9 11 5 6 1024.1 1023.3 0.0
28/02:00am 13.2 9.3 3.3 51 4.4 SSE 13 13 7 7 1024.4 1023.6 0.0
28/01:30am 12.9 9.3 2.7 50 4.5 S 11 11 6 6 1024.3 1023.5 0.0
28/01:00am 13.2 9.6 2.7 49 4.6 SSE 11 11 6 6 1024.4 1023.6 0.0
28/12:30am 13.7 10.4 2.6 47 5.0 S 9 11 5 6 1024.7 1023.9 0.0
28/12:00am 14.2 10.5 2.5 45 5.2 SSE 11 11 6 6 1024.7 1023.9 0.0
 
Date/Time
EDT
Temp
°C
App
Temp
°C
Dew
Point
Rel
Hum
%
Delta-T
°C
Wind Press
QNH
hPa
Press
MSL
hPa
Rain
since 9 am
mm
Dir
 
Spd
km/h
Gust
km/h
Spd
kts
Gust
kts
27/11:30pm 14.8 11.5 2.7 44 5.5 SSE 9 11 5 6 1024.8 1024.0 0.0
27/11:00pm 15.5 12.2 2.7 42 5.8 SSE 9 11 5 6 1024.8 1024.0 0.0
27/10:30pm 15.9 12.9 2.3 40 6.1 S 7 9 4 5 1024.9 1024.1 0.0
27/10:00pm 17.1 13.5 2.7 38 6.6 S 11 13 6 7 1024.7 1023.9 0.0
27/09:30pm 18.4 14.4 3.1 36 7.2 SE 13 15 7 8 1024.3 1023.5 0.0
27/09:00pm 19.0 15.0 2.8 34 7.5 SE 13 17 7 9 1024.2 1023.4 0.0
27/08:30pm 19.7 15.3 2.6 32 8.0 SSE 15 19 8 10 1023.9 1023.1 0.0
27/08:00pm 20.4 15.9 2.3 30 8.4 SSE 15 20 8 11 1023.8 1023.0 0.0
27/07:30pm 21.1 16.3 2.4 29 8.8 SSE 17 24 9 13 1023.4 1022.6 0.0
27/07:00pm 21.7 16.8 1.9 27 9.2 SE 17 22 9 12 1023.3 1022.5 0.0
27/06:30pm 22.3 17.5 2.4 27 9.5 SSE 17 24 9 13 1023.2 1022.4 0.0
27/06:00pm 22.5 17.7 2.6 27 9.5 SSW 17 24 9 13 1023.1 1022.3 0.0
27/05:30pm 22.3 17.2 2.9 28 9.3 SSW 19 26 10 14 1023.3 1022.5 0.0
27/05:00pm 22.6 18.2 2.7 27 9.5 S 15 24 8 13 1023.2 1022.4 0.0
27/04:30pm 22.2 18.2 2.8 28 9.3 SSW 13 22 7 12 1023.6 1022.8 0.0
27/04:00pm 22.2 17.5 3.3 29 9.1 S 17 32 9 17 1023.8 1023.0 0.0
27/03:30pm 22.6 18.3 3.2 28 9.4 S 15 22 8 12 1024.0 1023.2 0.0
27/03:00pm 21.0 15.9 2.8 30 8.6 S 19 32 10 17 1024.7 1023.9 0.0
27/02:30pm 20.7 16.0 3.4 32 8.3 SSW 17 20 9 11 1025.0 1024.2 0.0
27/02:00pm 21.0 16.4 3.7 32 8.3 SSE 17 28 9 15 1025.5 1024.7 0.0
27/01:30pm 20.3 15.3 3.5 33 8.0 SSW 19 30 10 16 1026.1 1025.3 0.0
27/01:00pm 19.5 14.5 3.6 35 7.5 S 19 30 10 16 1026.8 1026.0 0.0
27/12:30pm 18.1 13.1 3.6 38 6.8 SSE 19 32 10 17 1027.6 1026.8 0.0
27/12:00pm 17.5 12.5 3.8 40 6.4 SSE 19 26 10 14 1028.1 1027.3 0.0
27/11:30am 17.2 11.4 4.5 43 6.1 SSE 24 33 13 18 1028.3 1027.5 0.0
27/11:00am 16.3 11.3 4.4 45 5.6 SE 20 30 11 16 1028.8 1028.0 0.0
27/10:30am 15.4 9.9 4.2 47 5.2 SSE 22 30 12 16 1028.9 1028.1 0.0
27/10:00am 14.9 9.5 4.3 49 4.9 SE 22 33 12 18 1028.6 1027.8 0.0
27/09:30am 14.0 8.6 4.6 53 4.4 SE 22 30 12 16 1028.5 1027.7 0.0
27/09:00am 12.9 7.5 4.6 57 3.8 SSE 22 30 12 16 1028.1 1027.3 0.0
27/08:30am 11.9 7.0 4.2 59 3.5 SSE 19 24 10 13 1027.7 1026.9 0.0
27/08:00am 11.0 6.8 3.8 61 3.2 SSE 15 19 8 10 1027.6 1026.8 0.0
27/07:30am 11.0 5.8 3.5 60 3.3 SSE 20 26 11 14 1027.3 1026.5 0.0
27/07:00am 11.2 6.2 3.5 59 3.4 SE 19 24 10 13 1027.1 1026.3 0.0
27/06:30am 11.5 6.4 3.3 57 3.6 SSE 19 26 10 14 1026.9 1026.1 0.0
27/06:00am 11.7 7.0 3.0 55 3.8 SSE 17 24 9 13 1026.7 1025.9 0.0
27/05:30am 12.2 6.9 3.2 54 4.0 SSE 20 28 11 15 1026.4 1025.7 0.0
27/05:00am 12.3 6.2 2.5 51 4.3 SSE 24 33 13 18 1026.3 1025.6 0.0
27/04:30am 12.4 6.5 2.0 49 4.5 SSE 22 28 12 15 1026.3 1025.6 0.0
27/04:00am 12.5 6.8 0.6 44 5.0 SSE 20 24 11 13 1026.2 1025.4 0.0
27/03:30am 13.0 6.9 0.7 43 5.2 SSE 22 30 12 16 1026.2 1025.4 0.0
27/03:00am 12.8 7.4 -1.1 38 5.6 SSE 17 20 9 11 1026.1 1025.3 0.0
27/02:30am 12.3 8.1 -1.2 39 5.5 SSE 11 13 6 7 1026.3 1025.6 0.0
27/02:00am 12.0 8.1 -1.5 39 5.4 SSE 9 13 5 7 1026.1 1025.3 0.0
27/01:30am 11.3 7.8 -2.5 38 5.4 S 6 7 3 4 1026.1 1025.3 0.0
27/01:00am 11.9 8.8 -2.7 36 5.6 SSE 4 6 2 3 1026.2 1025.4 0.0
27/12:30am 13.1 9.1 -2.0 35 6.0 SSE 9 9 5 5 1026.0 1025.2 0.0
27/12:00am 14.2 9.9 -1.8 33 6.5 SSE 11 13 6 7 1026.2 1025.4 0.0
 
Date/Time
EDT
Temp
°C
App
Temp
°C
Dew
Point
Rel
Hum
%
Delta-T
°C
Wind Press
QNH
hPa
Press
MSL
hPa
Rain
since 9 am
mm
Dir
 
Spd
km/h
Gust
km/h
Spd
kts
Gust
kts
26/11:30pm 14.5 10.5 -2.0 32 6.7 SSE 9 11 5 6 1026.0 1025.2 0.0
26/11:00pm 15.3 10.6 -1.7 31 7.0 SSE 13 13 7 7 1026.1 1025.3 0.0
26/10:30pm 15.7 10.9 -2.3 29 7.4 SSE 13 15 7 8 1025.9 1025.1 0.0
26/10:00pm 16.0 11.2 -2.5 28 7.5 SSE 13 13 7 7 1025.7 1024.9 0.0
26/09:30pm 16.9 12.1 -2.7 26 8.0 SSE 13 13 7 7 1025.5 1024.7 0.0
26/09:00pm 17.7 12.8 -3.7 23 8.6 SSE 13 15 7 8 1025.0 1024.2 0.0
26/08:30pm 18.9 13.6 -3.3 22 9.2 S 15 20 8 11 1024.7 1023.9 0.0
26/08:00pm 19.7 14.1 -3.2 21 9.5 S 17 22 9 12 1024.3 1023.5 0.0
26/07:30pm 20.4 14.3 -2.6 21 9.8 S 20 26 11 14 1023.8 1023.0 0.0
26/07:00pm 21.3 15.2 -2.5 20 10.2 S 20 26 11 14 1023.6 1022.8 0.0
26/06:30pm 21.8 16.0 -1.5 21 10.2 S 19 26 10 14 1023.3 1022.5 0.0
26/06:00pm 21.9 15.9 -1.4 21 10.2 S 20 32 11 17 1023.2 1022.4 0.0
26/05:30pm 22.1 16.1 -1.2 21 10.3 SSW 20 32 11 17 1023.2 1022.4 0.0
26/05:00pm 22.2 16.5 -1.1 21 10.3 SW 19 30 10 16 1023.1 1022.3 0.0
26/04:30pm 21.9 16.1 -1.4 21 10.3 SSW 19 30 10 16 1023.2 1022.4 0.0
26/04:00pm 21.9 16.2 -0.8 22 10.1 SSW 19 39 10 21 1023.4 1022.6 0.0
26/03:30pm 21.6 15.9 -0.4 23 9.9 S 19 41 10 22 1023.5 1022.7 0.0
26/03:00pm 21.5 15.8 0.7 25 9.5 S 20 32 11 17 1023.9 1023.1 0.0
26/02:30pm 21.5 16.6 1.7 27 9.2 SSW 17 30 9 16 1024.3 1023.5 0.0
26/02:00pm 19.8 14.2 1.3 29 8.4 SSW 20 30 11 16 1024.7 1023.9 0.0
26/01:30pm 19.8 13.5 1.7 30 8.3 S 24 33 13 18 1025.2 1024.4 0.0
26/01:00pm 19.5 13.7 2.4 32 7.9 S 22 32 12 17 1025.5 1024.7 0.0
26/12:30pm 18.6 12.7 2.0 33 7.6 S 22 33 12 18 1025.7 1024.9 0.0
26/12:00pm 18.3 12.6 2.6 35 7.2 S 22 35 12 19 1026.2 1025.4 0.0

Other Formats:

Comma delimited format used in spreadsheet applications
http://www.bom.gov.au/fwo/IDN60801/IDN60801.94686.axf

JavaScript Object Notation format (JSON) in row-major order
http://www.bom.gov.au/fwo/IDN60801/IDN60801.94686.json